createdAt,value
2022-09-03T00:02:28.324Z,0.85
2022-09-03T00:05:17.219Z,0.80
2022-09-03T00:07:57.764Z,0.95
2022-09-03T00:10:53.444Z,0.93
2022-09-03T00:13:37.492Z,1.00
2022-09-03T00:16:12.340Z,1.20
2022-09-03T00:18:49.822Z,0.80
2022-09-03T00:21:34.379Z,1.00
2022-09-03T00:24:14.494Z,0.95
2022-09-03T00:26:54.640Z,1.27
2022-09-03T00:29:25.644Z,0.90
2022-09-03T00:32:07.044Z,0.90
2022-09-03T00:34:41.531Z,1.00
2022-09-03T00:37:15.470Z,0.90
2022-09-03T00:39:44.191Z,1.00
2022-09-03T00:42:31.081Z,0.80
2022-09-03T01:25:41.777Z,0.80
2022-09-03T01:29:14.719Z,1.10
2022-09-03T01:55:27.790Z,1.10
2022-09-03T01:58:02.730Z,1.30
2022-09-03T02:00:34.550Z,1.13
2022-09-03T02:03:07.790Z,0.90
2022-09-03T02:05:44.056Z,0.88
2022-09-03T02:08:11.631Z,0.98
2022-09-03T02:10:52.690Z,1.10
2022-09-03T02:13:55.453Z,0.90
2022-09-03T02:16:38.544Z,0.90
2022-09-03T02:19:18.308Z,0.85
2022-09-03T02:26:04.505Z,0.98
2022-09-03T02:28:41.067Z,1.27
2022-09-03T02:34:28.230Z,1.40
2022-09-03T02:39:56.750Z,1.00
2022-09-03T02:48:45.345Z,0.90
2022-09-03T02:51:42.674Z,1.08
2022-09-03T02:58:19.534Z,1.08
2022-09-03T03:00:49.399Z,1.00
2022-09-03T03:03:17.369Z,1.10
2022-09-03T03:08:45.810Z,0.90
2022-09-03T03:11:18.556Z,1.10
2022-09-03T03:13:46.725Z,1.00
2022-09-03T03:16:22.018Z,1.00
2022-09-03T03:19:15.398Z,0.95
2022-09-03T03:21:48.602Z,1.20
2022-09-03T03:24:17.393Z,1.05
2022-09-03T03:27:10.705Z,1.10
2022-09-03T03:30:07.004Z,1.10
2022-09-03T03:32:43.240Z,1.20
2022-09-03T03:38:30.321Z,1.15
2022-09-03T03:41:43.281Z,1.23
2022-09-03T03:50:49.196Z,1.10
2022-09-03T03:53:20.550Z,1.40
2022-09-03T03:56:15.337Z,1.13
2022-09-03T04:16:28.014Z,1.00
2022-09-03T04:29:19.107Z,1.10
2022-09-03T04:32:11.320Z,1.10
2022-09-03T04:34:39.459Z,1.10
2022-09-03T04:37:07.417Z,1.10
2022-09-03T04:39:35.444Z,0.90
2022-09-03T04:42:03.477Z,1.00
2022-09-03T04:44:31.410Z,1.15
2022-09-03T04:47:04.430Z,1.10
2022-09-03T04:53:08.346Z,1.02
2022-09-03T04:55:36.884Z,0.98
2022-09-03T04:58:07.783Z,1.20
2022-09-03T05:00:45.861Z,1.10
2022-09-03T05:06:21.649Z,1.20
2022-09-03T05:08:59.091Z,1.00
2022-09-03T05:11:36.297Z,0.82
2022-09-03T05:17:10.319Z,1.00
2022-09-03T05:22:36.654Z,1.00
2022-09-03T05:25:05.823Z,1.13
2022-09-03T05:27:42.381Z,0.98
2022-09-03T05:30:10.450Z,0.98
2022-09-03T05:35:47.331Z,1.15
2022-09-03T05:38:19.797Z,0.90
2022-09-03T05:40:55.460Z,1.02
2022-09-03T05:43:57.152Z,1.00
2022-09-03T05:46:58.668Z,0.85
2022-09-03T06:00:59.966Z,0.82
2022-09-03T06:03:44.465Z,0.88
2022-09-03T06:06:17.959Z,1.00
2022-09-03T06:11:44.544Z,0.95
2022-09-03T06:14:25.279Z,0.90
2022-09-03T06:16:53.655Z,1.00
2022-09-03T06:19:22.098Z,0.88
2022-09-03T06:22:04.348Z,1.13
2022-09-03T06:24:36.376Z,1.00
2022-09-03T06:29:59.639Z,1.00
2022-09-03T06:32:40.892Z,1.00
2022-09-03T06:35:09.704Z,1.08
2022-09-03T06:40:26.167Z,1.13
2022-09-03T06:43:18.500Z,1.23
2022-09-03T06:49:01.193Z,1.20
2022-09-03T06:51:39.931Z,1.15
2022-09-03T06:54:18.501Z,1.10
2022-09-03T06:56:45.328Z,1.17
2022-09-03T06:59:14.796Z,1.23
2022-09-03T07:01:46.283Z,1.13
2022-09-03T07:04:20.356Z,1.00
2022-09-03T07:07:20.769Z,1.00
2022-09-03T07:12:49.631Z,1.10
2022-09-03T07:15:20.071Z,1.20
2022-09-03T07:17:47.435Z,1.20
2022-09-03T07:20:22.329Z,1.30
2022-09-03T07:23:10.700Z,1.20
2022-09-03T07:34:41.877Z,1.00
2022-09-03T07:37:46.325Z,1.20
2022-09-03T07:40:14.216Z,1.30
2022-09-03T07:48:57.103Z,1.30
2022-09-03T07:51:29.481Z,1.05
2022-09-03T07:57:17.888Z,1.00
2022-09-03T07:59:45.290Z,1.10
2022-09-03T08:05:05.857Z,0.90
2022-09-03T08:10:16.604Z,1.10
2022-09-03T08:12:43.285Z,1.17
2022-09-03T08:15:18.795Z,1.00
2022-09-03T08:17:51.140Z,0.85
2022-09-03T08:20:20.652Z,1.30
2022-09-03T08:23:14.669Z,1.00
2022-09-03T08:25:52.323Z,0.90
2022-09-03T08:31:38.717Z,1.15
2022-09-03T08:34:08.020Z,1.25
2022-09-03T08:39:30.239Z,1.10
2022-09-03T08:42:26.485Z,1.30
2022-09-03T08:45:13.001Z,1.05
2022-09-03T08:47:48.648Z,1.00
2022-09-03T08:53:17.655Z,0.90
2022-09-03T08:56:07.415Z,1.20
2022-09-03T08:58:48.902Z,0.95
2022-09-03T09:11:37.734Z,1.20
2022-09-03T09:15:19.692Z,0.98
2022-09-03T09:18:03.149Z,1.10
2022-09-03T09:23:32.850Z,1.13
2022-09-03T09:26:33.629Z,0.90
2022-09-03T09:29:09.524Z,0.80
2022-09-03T09:31:39.873Z,1.25
2022-09-03T09:46:42.660Z,0.90
2022-09-03T09:49:38.717Z,1.10
2022-09-03T09:55:10.508Z,0.85
2022-09-03T09:57:43.320Z,0.70
2022-09-03T10:00:16.186Z,1.00
2022-09-03T10:02:57.141Z,1.00
2022-09-03T10:05:37.120Z,1.20
2022-09-03T10:08:21.712Z,1.00
2022-09-03T10:10:58.193Z,0.88
2022-09-03T10:38:55.504Z,0.90
2022-09-03T10:53:31.976Z,0.80
2022-09-03T10:59:29.662Z,0.70
2022-09-03T11:03:06.682Z,1.23
2022-09-03T11:31:51.439Z,1.15
2022-09-03T11:35:09.622Z,0.90
2022-09-03T11:55:01.358Z,0.90
2022-09-03T12:22:17.759Z,0.90
2022-09-03T12:41:35.328Z,0.80
2022-09-03T12:47:40.455Z,1.10
2022-09-03T12:53:14.644Z,0.90
2022-09-03T12:56:16.851Z,0.70
2022-09-03T13:22:24.211Z,0.90
2022-09-03T13:41:46.556Z,1.27
2022-09-03T15:08:12.397Z,0.80
2022-09-03T15:11:01.385Z,0.95
2022-09-03T15:13:52.173Z,1.45
2022-09-03T15:16:56.571Z,0.90
2022-09-03T17:51:52.203Z,1.00
2022-09-03T18:06:57.579Z,1.20
2022-09-03T18:09:42.715Z,1.35
2022-09-03T18:15:25.482Z,1.20
2022-09-03T18:17:59.123Z,1.15
2022-09-03T18:21:24.357Z,1.83
2022-09-03T18:24:34.098Z,1.20
2022-09-03T18:27:34.759Z,1.20
2022-09-03T18:30:37.618Z,1.25
2022-09-03T18:36:33.940Z,1.30
2022-09-03T18:39:45.645Z,1.20
2022-09-03T18:43:26.211Z,1.50
2022-09-03T18:50:00.237Z,1.23
2022-09-03T18:53:00.344Z,1.40
2022-09-03T18:56:14.418Z,1.40
2022-09-03T18:59:24.698Z,1.60
2022-09-03T19:02:48.000Z,1.33
2022-09-03T19:05:58.769Z,1.17
2022-09-03T19:09:02.768Z,1.50
2022-09-03T19:11:56.941Z,1.40
2022-09-03T19:15:10.748Z,1.50
2022-09-03T19:18:28.669Z,1.50
2022-09-03T19:21:29.835Z,1.90
2022-09-03T19:24:21.061Z,1.77
2022-09-03T19:27:50.584Z,1.90
2022-09-03T19:30:39.730Z,2.45
2022-09-03T19:33:33.937Z,2.08
2022-09-03T19:36:26.246Z,1.90
2022-09-03T19:39:27.143Z,2.47
2022-09-03T19:42:26.393Z,2.10
2022-09-03T19:45:33.525Z,2.00
2022-09-03T19:48:48.393Z,2.40
2022-09-03T19:51:40.125Z,2.42
2022-09-03T19:54:27.806Z,1.95
2022-09-03T19:57:24.752Z,1.92
2022-09-03T20:00:11.801Z,2.20
2022-09-03T20:03:07.084Z,2.03
2022-09-03T20:05:55.918Z,1.65
2022-09-03T20:08:43.558Z,2.00
2022-09-03T20:11:18.817Z,2.38
2022-09-03T20:14:05.953Z,1.95
2022-09-03T20:16:45.502Z,2.00
2022-09-03T20:19:25.950Z,2.10
2022-09-03T20:22:24.526Z,2.20
2022-09-03T20:28:04.918Z,2.30
2022-09-03T20:31:42.506Z,2.30
2022-09-03T20:34:39.973Z,2.28
2022-09-03T20:37:36.377Z,2.33
2022-09-03T20:40:11.780Z,1.75
2022-09-03T20:43:10.725Z,1.27
2022-09-03T20:46:06.139Z,1.23
2022-09-03T20:48:58.070Z,1.38
2022-09-03T20:51:38.636Z,1.00
2022-09-03T20:54:33.707Z,1.02
2022-09-03T20:57:27.355Z,1.05
2022-09-03T21:00:15.219Z,1.20
2022-09-03T21:03:03.673Z,1.27
2022-09-03T21:05:57.845Z,1.27
2022-09-03T21:09:00.076Z,1.13
2022-09-03T21:12:03.053Z,1.70
2022-09-03T21:14:33.479Z,1.55
2022-09-03T21:17:04.984Z,1.67
2022-09-03T21:20:02.877Z,2.03
2022-09-03T21:22:40.908Z,2.03
2022-09-03T21:25:23.017Z,1.90
2022-09-03T21:28:42.840Z,1.92
2022-09-03T21:31:38.511Z,1.30
2022-09-03T21:34:22.731Z,0.98
2022-09-03T21:42:34.324Z,1.20
2022-09-03T21:45:20.294Z,0.90
2022-09-03T21:47:57.042Z,1.00
2022-09-03T21:51:29.900Z,0.90
2022-09-03T21:54:30.828Z,0.95
2022-09-03T22:06:31.546Z,1.20
2022-09-03T22:12:45.401Z,1.20
2022-09-03T22:15:18.689Z,1.00
2022-09-03T22:20:52.809Z,1.20
2022-09-03T22:23:55.552Z,1.70
2022-09-03T22:30:15.077Z,1.48
2022-09-03T22:33:19.953Z,2.58
2022-09-03T22:36:14.903Z,2.50
2022-09-03T22:39:09.767Z,3.42
2022-09-03T22:47:37.396Z,3.90
2022-09-03T22:50:29.147Z,3.13
2022-09-03T22:53:31.165Z,3.35
2022-09-03T22:57:02.569Z,2.92
2022-09-03T23:00:12.212Z,2.80
2022-09-03T23:29:02.447Z,1.27
2022-09-03T23:31:36.371Z,1.35
2022-09-03T23:37:10.233Z,0.93
2022-09-03T23:48:02.394Z,1.00
2022-09-03T23:54:38.463Z,1.00
2022-09-03T23:57:20.733Z,1.13
